sensor_id;sensor_type;location;lat;lon;timestamp;pressure;altitude;pressure_sealevel;temperature;humidity
32873;BME280;19224;52.462;16.898;2022-12-20T00:00:51;100739.67;;;3.40;100.00
32873;BME280;19224;52.462;16.898;2022-12-20T00:03:21;100743.23;;;3.39;100.00
32873;BME280;19224;52.462;16.898;2022-12-20T00:05:51;100748.56;;;3.38;100.00
32873;BME280;19224;52.462;16.898;2022-12-20T00:08:22;100739.71;;;3.37;100.00
32873;BME280;19224;52.462;16.898;2022-12-20T00:10:53;100745.47;;;3.37;100.00
32873;BME280;19224;52.462;16.898;2022-12-20T00:13:24;100747.30;;;3.30;100.00
32873;BME280;19224;52.462;16.898;2022-12-20T00:16:13;100741.98;;;3.30;100.00
32873;BME280;19224;52.462;16.898;2022-12-20T00:18:44;100741.15;;;3.24;100.00
32873;BME280;19224;52.462;16.898;2022-12-20T00:21:15;100743.02;;;3.14;100.00
32873;BME280;19224;52.462;16.898;2022-12-20T00:23:46;100739.06;;;3.08;100.00
32873;BME280;19224;52.462;16.898;2022-12-20T00:26:20;100734.63;;;3.07;100.00
32873;BME280;19224;52.462;16.898;2022-12-20T00:28:51;100732.91;;;3.02;100.00
32873;BME280;19224;52.462;16.898;2022-12-20T00:31:24;100729.84;;;2.98;100.00
32873;BME280;19224;52.462;16.898;2022-12-20T00:33:58;100720.09;;;2.95;100.00
32873;BME280;19224;52.462;16.898;2022-12-20T00:36:31;100726.31;;;2.94;100.00
32873;BME280;19224;52.462;16.898;2022-12-20T00:39:02;100712.55;;;2.96;100.00
32873;BME280;19224;52.462;16.898;2022-12-20T00:41:34;100724.09;;;2.95;100.00
32873;BME280;19224;52.462;16.898;2022-12-20T00:44:04;100724.98;;;2.93;100.00
32873;BME280;19224;52.462;16.898;2022-12-20T00:46:35;100718.84;;;2.89;100.00
32873;BME280;19224;52.462;16.898;2022-12-20T00:49:05;100713.05;;;2.88;100.00
32873;BME280;19224;52.462;16.898;2022-12-20T00:51:36;100716.20;;;2.85;100.00
32873;BME280;19224;52.462;16.898;2022-12-20T00:54:07;100717.97;;;2.84;100.00
32873;BME280;19224;52.462;16.898;2022-12-20T00:56:37;100698.02;;;2.84;100.00
32873;BME280;19224;52.462;16.898;2022-12-20T00:59:08;100704.67;;;2.84;100.00
32873;BME280;19224;52.462;16.898;2022-12-20T01:01:38;100703.77;;;2.85;100.00
32873;BME280;19224;52.462;16.898;2022-12-20T01:04:08;100715.77;;;2.84;100.00
32873;BME280;19224;52.462;16.898;2022-12-20T01:06:39;100710.89;;;2.85;100.00
32873;BME280;19224;52.462;16.898;2022-12-20T01:09:11;100715.27;;;2.87;100.00
32873;BME280;19224;52.462;16.898;2022-12-20T01:11:41;100707.30;;;2.87;100.00
32873;BME280;19224;52.462;16.898;2022-12-20T01:14:15;100699.31;;;2.87;100.00
32873;BME280;19224;52.462;16.898;2022-12-20T01:16:46;100691.77;;;2.88;100.00
32873;BME280;19224;52.462;16.898;2022-12-20T01:19:18;100695.76;;;2.91;100.00
32873;BME280;19224;52.462;16.898;2022-12-20T01:21:48;100694.86;;;2.92;100.00
32873;BME280;19224;52.462;16.898;2022-12-20T01:24:20;100697.48;;;2.95;100.00
32873;BME280;19224;52.462;16.898;2022-12-20T01:26:50;100682.83;;;2.98;100.00
32873;BME280;19224;52.462;16.898;2022-12-20T01:29:21;100683.26;;;3.02;100.00
32873;BME280;19224;52.462;16.898;2022-12-20T01:31:51;100688.08;;;3.07;100.00
32873;BME280;19224;52.462;16.898;2022-12-20T01:34:22;100694.73;;;3.07;100.00
32873;BME280;19224;52.462;16.898;2022-12-20T01:36:53;100693.40;;;3.09;100.00
32873;BME280;19224;52.462;16.898;2022-12-20T01:39:23;100686.75;;;3.07;100.00
32873;BME280;19224;52.462;16.898;2022-12-20T01:41:54;100680.13;;;3.06;100.00
32873;BME280;19224;52.462;16.898;2022-12-20T01:46:59;100677.86;;;3.10;100.00
32873;BME280;19224;52.462;16.898;2022-12-20T01:49:37;100678.30;;;3.09;100.00
32873;BME280;19224;52.462;16.898;2022-12-20T01:52:20;100690.27;;;3.09;100.00
32873;BME280;19224;52.462;16.898;2022-12-20T01:54:59;100692.93;;;3.09;100.00
32873;BME280;19224;52.462;16.898;2022-12-20T01:57:44;100678.33;;;3.08;100.00
32873;BME280;19224;52.462;16.898;2022-12-20T02:00:16;100663.66;;;3.11;100.00
32873;BME280;19224;52.462;16.898;2022-12-20T02:02:48;100660.58;;;3.08;100.00
32873;BME280;19224;52.462;16.898;2022-12-20T02:05:21;100650.36;;;3.09;100.00
32873;BME280;19224;52.462;16.898;2022-12-20T02:07:54;100649.92;;;3.10;100.00
32873;BME280;19224;52.462;16.898;2022-12-20T02:10:36;100645.98;;;3.07;100.00
32873;BME280;19224;52.462;16.898;2022-12-20T02:13:06;100643.71;;;3.09;100.00
32873;BME280;19224;52.462;16.898;2022-12-20T02:15:48;100645.03;;;3.11;100.00
32873;BME280;19224;52.462;16.898;2022-12-20T02:24:39;100657.91;;;3.11;100.00
32873;BME280;19224;52.462;16.898;2022-12-20T02:27:31;100651.26;;;3.11;100.00
32873;BME280;19224;52.462;16.898;2022-12-20T02:30:13;100651.26;;;3.11;100.00
32873;BME280;19224;52.462;16.898;2022-12-20T02:33:06;100647.27;;;3.08;100.00
32873;BME280;19224;52.462;16.898;2022-12-20T02:35:39;100644.17;;;3.07;100.00
32873;BME280;19224;52.462;16.898;2022-12-20T02:38:33;100645.08;;;3.06;100.00
32873;BME280;19224;52.462;16.898;2022-12-20T02:41:13;100632.20;;;3.07;100.00
32873;BME280;19224;52.462;16.898;2022-12-20T02:43:43;100626.89;;;3.07;100.00
32873;BME280;19224;52.462;16.898;2022-12-20T02:46:32;100624.23;;;3.07;100.00
32873;BME280;19224;52.462;16.898;2022-12-20T02:49:11;100623.80;;;3.06;100.00
32873;BME280;19224;52.462;16.898;2022-12-20T02:51:45;100620.70;;;3.05;100.00
32873;BME280;19224;52.462;16.898;2022-12-20T02:54:16;100630.91;;;3.06;100.00
32873;BME280;19224;52.462;16.898;2022-12-20T02:56:55;100633.53;;;3.09;100.00
32873;BME280;19224;52.462;16.898;2022-12-20T02:59:39;100634.44;;;3.06;100.00
32873;BME280;19224;52.462;16.898;2022-12-20T03:02:09;100636.23;;;3.04;100.00
32873;BME280;19224;52.462;16.898;2022-12-20T03:04:41;100635.38;;;3.02;100.00
32873;BME280;19224;52.462;16.898;2022-12-20T03:07:14;100642.84;;;3.07;100.00
32873;BME280;19224;52.462;16.898;2022-12-20T03:09:45;100642.81;;;3.10;100.00
32873;BME280;19224;52.462;16.898;2022-12-20T03:12:16;100641.91;;;3.13;100.00
32873;BME280;19224;52.462;16.898;2022-12-20T03:14:46;100640.58;;;3.14;100.00
32873;BME280;19224;52.462;16.898;2022-12-20T03:17:16;100637.45;;;3.16;100.00
32873;BME280;19224;52.462;16.898;2022-12-20T03:19:47;100636.55;;;3.19;100.00
32873;BME280;19224;52.462;16.898;2022-12-20T03:22:18;100647.58;;;3.21;100.00
32873;BME280;19224;52.462;16.898;2022-12-20T03:24:49;100650.24;;;3.23;100.00
32873;BME280;19224;52.462;16.898;2022-12-20T03:27:19;100650.24;;;3.21;100.00
32873;BME280;19224;52.462;16.898;2022-12-20T03:29:49;100636.11;;;3.16;100.00
32873;BME280;19224;52.462;16.898;2022-12-20T03:32:20;100636.94;;;3.21;100.00
32873;BME280;19224;52.462;16.898;2022-12-20T03:34:50;100645.34;;;3.25;100.00
32873;BME280;19224;52.462;16.898;2022-12-20T03:37:21;100647.97;;;3.27;100.00
32873;BME280;19224;52.462;16.898;2022-12-20T03:39:52;100651.53;;;3.27;100.00
32873;BME280;19224;52.462;16.898;2022-12-20T03:42:22;100650.63;;;3.27;100.00
32873;BME280;19224;52.462;16.898;2022-12-20T03:44:53;100651.53;;;3.29;100.00
32873;BME280;19224;52.462;16.898;2022-12-20T03:47:23;100645.73;;;3.29;100.00
32873;BME280;19224;52.462;16.898;2022-12-20T03:49:54;100646.64;;;3.28;100.00
32873;BME280;19224;52.462;16.898;2022-12-20T03:52:25;100639.08;;;3.31;100.00
32873;BME280;19224;52.462;16.898;2022-12-20T03:54:56;100639.08;;;3.31;100.00
32873;BME280;19224;52.462;16.898;2022-12-20T03:57:27;100635.94;;;3.34;100.00
32873;BME280;19224;52.462;16.898;2022-12-20T03:59:57;100642.12;;;3.35;100.00
32873;BME280;19224;52.462;16.898;2022-12-20T04:02:28;100639.89;;;3.36;100.00
32873;BME280;19224;52.462;16.898;2022-12-20T04:04:58;100620.84;;;3.35;100.00
32873;BME280;19224;52.462;16.898;2022-12-20T04:07:29;100622.20;;;3.33;100.00
32873;BME280;19224;52.462;16.898;2022-12-20T04:09:59;100625.73;;;3.34;100.00
32873;BME280;19224;52.462;16.898;2022-12-20T04:12:29;100616.42;;;3.32;100.00
32873;BME280;19224;52.462;16.898;2022-12-20T04:15:00;100622.21;;;3.30;100.00
32873;BME280;19224;52.462;16.898;2022-12-20T04:17:30;100616.42;;;3.32;100.00
32873;BME280;19224;52.462;16.898;2022-12-20T04:20:00;100620.36;;;3.37;100.00
32873;BME280;19224;52.462;16.898;2022-12-20T04:22:32;100632.81;;;3.36;100.00
32873;BME280;19224;52.462;16.898;2022-12-20T04:25:03;100631.91;;;3.37;100.00
32873;BME280;19224;52.462;16.898;2022-12-20T04:27:33;100635.00;;;3.38;100.00
32873;BME280;19224;52.462;16.898;2022-12-20T04:30:05;100637.27;;;3.34;100.00
32873;BME280;19224;52.462;16.898;2022-12-20T04:32:35;100633.23;;;3.37;100.00
32873;BME280;19224;52.462;16.898;2022-12-20T04:35:07;100633.28;;;3.34;100.00
32873;BME280;19224;52.462;16.898;2022-12-20T04:37:37;100638.56;;;3.39;100.00
32873;BME280;19224;52.462;16.898;2022-12-20T04:40:09;100639.03;;;3.35;100.00
32873;BME280;19224;52.462;16.898;2022-12-20T04:42:39;100644.75;;;3.38;100.00
32873;BME280;19224;52.462;16.898;2022-12-20T04:45:10;100639.03;;;3.35;100.00
32873;BME280;19224;52.462;16.898;2022-12-20T04:47:41;100643.41;;;3.39;100.00
32873;BME280;19224;52.462;16.898;2022-12-20T04:50:12;100646.12;;;3.36;100.00
32873;BME280;19224;52.462;16.898;2022-12-20T04:52:42;100643.41;;;3.39;100.00
32873;BME280;19224;52.462;16.898;2022-12-20T04:55:32;100646.94;;;3.41;100.00
32873;BME280;19224;52.462;16.898;2022-12-20T04:58:02;100641.18;;;3.42;100.00
32873;BME280;19224;52.462;16.898;2022-12-20T05:00:33;100638.05;;;3.45;100.00
32873;BME280;19224;52.462;16.898;2022-12-20T05:03:04;100634.48;;;3.43;100.00
32873;BME280;19224;52.462;16.898;2022-12-20T05:05:35;100636.71;;;3.45;100.00
32873;BME280;19224;52.462;16.898;2022-12-20T05:08:05;100626.49;;;3.46;100.00
32873;BME280;19224;52.462;16.898;2022-12-20T05:10:36;100625.59;;;3.44;100.00
32873;BME280;19224;52.462;16.898;2022-12-20T05:13:06;100626.45;;;3.48;100.00
32873;BME280;19224;52.462;16.898;2022-12-20T05:15:37;100621.13;;;3.49;100.00
32873;BME280;19224;52.462;16.898;2022-12-20T05:18:08;100624.22;;;3.50;100.00
32873;BME280;19224;52.462;16.898;2022-12-20T05:20:39;100607.38;;;3.48;100.00
32873;BME280;19224;52.462;16.898;2022-12-20T05:23:10;100618.45;;;3.51;100.00
32873;BME280;19224;52.462;16.898;2022-12-20T05:25:58;100620.65;;;3.51;100.00
32873;BME280;19224;52.462;16.898;2022-12-20T05:28:47;100620.70;;;3.48;100.00
32873;BME280;19224;52.462;16.898;2022-12-20T05:31:18;100620.22;;;3.50;100.00
32873;BME280;19224;52.462;16.898;2022-12-20T05:33:48;100608.24;;;3.50;100.00
32873;BME280;19224;52.462;16.898;2022-12-20T05:36:19;100609.53;;;3.53;100.00
32873;BME280;19224;52.462;16.898;2022-12-20T05:38:49;100603.34;;;3.51;100.00
32873;BME280;19224;52.462;16.898;2022-12-20T05:41:19;100598.49;;;3.49;100.00
32873;BME280;19224;52.462;16.898;2022-12-20T05:43:50;100595.03;;;3.41;100.00
32873;BME280;19224;52.462;16.898;2022-12-20T05:46:20;100601.30;;;3.37;100.00
32873;BME280;19224;52.462;16.898;2022-12-20T05:48:51;100608.00;;;3.34;100.00
32873;BME280;19224;52.462;16.898;2022-12-20T05:51:22;100612.89;;;3.32;100.00
32873;BME280;19224;52.462;16.898;2022-12-20T05:53:52;100620.02;;;3.28;100.00
32873;BME280;19224;52.462;16.898;2022-12-20T05:56:23;100622.21;;;3.30;100.00
32873;BME280;19224;52.462;16.898;2022-12-20T05:58:53;100630.23;;;3.29;100.00
32873;BME280;19224;52.462;16.898;2022-12-20T06:01:24;100629.80;;;3.26;100.00
32873;BME280;19224;52.462;16.898;2022-12-20T06:03:54;100629.84;;;3.23;100.00
32873;BME280;19224;52.462;16.898;2022-12-20T06:06:25;100639.59;;;3.21;100.00
32873;BME280;19224;52.462;16.898;2022-12-20T06:08:55;100644.02;;;3.24;100.00
32873;BME280;19224;52.462;16.898;2022-12-20T06:11:25;100655.09;;;3.26;100.00
32873;BME280;19224;52.462;16.898;2022-12-20T06:13:56;100656.38;;;3.31;100.00
32873;BME280;19224;52.462;16.898;2022-12-20T06:16:27;100654.14;;;3.33;100.00
32873;BME280;19224;52.462;16.898;2022-12-20T06:18:57;100647.41;;;3.38;100.00
32873;BME280;19224;52.462;16.898;2022-12-20T06:21:28;100652.30;;;3.40;100.00
32873;BME280;19224;52.462;16.898;2022-12-20T06:24:00;100649.55;;;3.44;100.00
32873;BME280;19224;52.462;16.898;2022-12-20T06:26:30;100654.88;;;3.47;100.00
32873;BME280;19224;52.462;16.898;2022-12-20T06:29:04;100651.27;;;3.51;100.00
32873;BME280;19224;52.462;16.898;2022-12-20T06:31:40;100641.48;;;3.53;100.00
32873;BME280;19224;52.462;16.898;2022-12-20T06:34:11;100637.43;;;3.59;100.00
32873;BME280;19224;52.462;16.898;2022-12-20T06:36:41;100641.85;;;3.60;100.00
32873;BME280;19224;52.462;16.898;2022-12-20T06:39:13;100641.42;;;3.59;100.00
32873;BME280;19224;52.462;16.898;2022-12-20T06:41:43;100644.52;;;3.59;100.00
32873;BME280;19224;52.462;16.898;2022-12-20T06:44:13;100647.17;;;3.60;100.00
32873;BME280;19224;52.462;16.898;2022-12-20T06:46:44;100636.91;;;3.64;100.00
32873;BME280;19224;52.462;16.898;2022-12-20T06:49:14;100640.00;;;3.65;100.00
32873;BME280;19224;52.462;16.898;2022-12-20T06:51:45;100643.98;;;3.68;100.00
32873;BME280;19224;52.462;16.898;2022-12-20T06:54:15;100637.76;;;3.69;100.00
32873;BME280;19224;52.462;16.898;2022-12-20T06:56:46;100636.86;;;3.70;100.00
32873;BME280;19224;52.462;16.898;2022-12-20T06:59:16;100634.63;;;3.70;100.00
32873;BME280;19224;52.462;16.898;2022-12-20T07:01:46;100636.81;;;3.73;100.00
32873;BME280;19224;52.462;16.898;2022-12-20T07:04:17;100632.81;;;3.75;100.00
32873;BME280;19224;52.462;16.898;2022-12-20T07:06:47;100634.58;;;3.74;100.00
32873;BME280;19224;52.462;16.898;2022-12-20T07:09:18;100624.78;;;3.76;100.00
32873;BME280;19224;52.462;16.898;2022-12-20T07:11:49;100622.11;;;3.76;100.00
32873;BME280;19224;52.462;16.898;2022-12-20T07:14:20;100619.45;;;3.76;100.00
32873;BME280;19224;52.462;16.898;2022-12-20T07:16:50;100617.69;;;3.75;100.00
32873;BME280;19224;52.462;16.898;2022-12-20T07:19:20;100632.72;;;3.81;100.00
32873;BME280;19224;52.462;16.898;2022-12-20T07:21:51;100615.87;;;3.80;100.00
32873;BME280;19224;52.462;16.898;2022-12-20T07:24:21;100623.77;;;3.86;100.00
32873;BME280;19224;52.462;16.898;2022-12-20T07:26:52;100632.17;;;3.89;100.00
32873;BME280;19224;52.462;16.898;2022-12-20T07:29:22;100627.70;;;3.92;100.00
32873;BME280;19224;52.462;16.898;2022-12-20T07:31:53;100639.64;;;3.95;100.00
32873;BME280;19224;52.462;16.898;2022-12-20T07:34:24;100639.64;;;3.95;100.00
32873;BME280;19224;52.462;16.898;2022-12-20T07:36:54;100630.80;;;3.92;100.00
32873;BME280;19224;52.462;16.898;2022-12-20T07:39:24;100635.28;;;3.88;100.00
32873;BME280;19224;52.462;16.898;2022-12-20T07:41:56;100630.91;;;3.84;100.00
32873;BME280;19224;52.462;16.898;2022-12-20T07:44:26;100633.98;;;3.87;100.00
32873;BME280;19224;52.462;16.898;2022-12-20T07:46:56;100635.28;;;3.88;100.00
32873;BME280;19224;52.462;16.898;2022-12-20T07:49:26;100643.78;;;3.85;100.00
32873;BME280;19224;52.462;16.898;2022-12-20T07:51:58;100645.08;;;3.86;100.00
32873;BME280;19224;52.462;16.898;2022-12-20T07:54:34;100634.84;;;3.87;100.00
32873;BME280;19224;52.462;16.898;2022-12-20T07:57:13;100642.41;;;3.88;100.00
32873;BME280;19224;52.462;16.898;2022-12-20T07:59:54;100649.06;;;3.89;100.00
32873;BME280;19224;52.462;16.898;2022-12-20T08:02:25;100653.06;;;3.86;100.00
32873;BME280;19224;52.462;16.898;2022-12-20T08:04:54;100655.72;;;3.88;100.00
32873;BME280;19224;52.462;16.898;2022-12-20T08:07:27;100653.06;;;3.88;100.00
32873;BME280;19224;52.462;16.898;2022-12-20T08:09:58;100642.35;;;3.92;100.00
32873;BME280;19224;52.462;16.898;2022-12-20T08:12:30;100645.44;;;3.95;100.00
32873;BME280;19224;52.462;16.898;2022-12-20T08:15:02;100642.25;;;3.98;100.00
32873;BME280;19224;52.462;16.898;2022-12-20T08:17:33;100642.20;;;4.03;100.00
32873;BME280;19224;52.462;16.898;2022-12-20T08:20:05;100637.28;;;4.07;100.00
32873;BME280;19224;52.462;16.898;2022-12-20T08:22:36;100638.09;;;4.10;100.00
32873;BME280;19224;52.462;16.898;2022-12-20T08:25:07;100655.84;;;4.13;100.00
32873;BME280;19224;52.462;16.898;2022-12-20T08:27:40;100651.78;;;4.17;100.00
32873;BME280;19224;52.462;16.898;2022-12-20T08:30:11;100648.20;;;4.20;100.00
32873;BME280;19224;52.462;16.898;2022-12-20T08:32:41;100647.23;;;4.25;100.00
32873;BME280;19224;52.462;16.898;2022-12-20T08:35:12;100651.13;;;4.31;100.00
32873;BME280;19224;52.462;16.898;2022-12-20T08:37:43;100648.03;;;4.30;100.00
32873;BME280;19224;52.462;16.898;2022-12-20T08:40:14;100640.03;;;4.32;100.00
32873;BME280;19224;52.462;16.898;2022-12-20T08:42:45;100638.23;;;4.32;100.00
32873;BME280;19224;52.462;16.898;2022-12-20T08:45:15;100627.98;;;4.35;100.00
32873;BME280;19224;52.462;16.898;2022-12-20T08:47:47;100626.58;;;4.39;100.00
32873;BME280;19224;52.462;16.898;2022-12-20T08:50:18;100625.19;;;4.42;100.00
32873;BME280;19224;52.462;16.898;2022-12-20T08:52:49;100617.06;;;4.51;100.00
32873;BME280;19224;52.462;16.898;2022-12-20T08:55:19;100610.26;;;4.60;100.00
32873;BME280;19224;52.462;16.898;2022-12-20T08:57:50;100617.27;;;4.67;100.00
32873;BME280;19224;52.462;16.898;2022-12-20T09:00:21;100617.77;;;4.90;100.00
32873;BME280;19224;52.462;16.898;2022-12-20T09:02:52;100627.48;;;4.92;100.00
32873;BME280;19224;52.462;16.898;2022-12-20T09:05:23;100624.44;;;4.90;100.00
32873;BME280;19224;52.462;16.898;2022-12-20T09:07:53;100641.78;;;4.90;100.00
32873;BME280;19224;52.462;16.898;2022-12-20T09:10:24;100631.56;;;4.88;100.00
32873;BME280;19224;52.462;16.898;2022-12-20T09:12:54;100619.60;;;4.86;100.00
32873;BME280;19224;52.462;16.898;2022-12-20T09:15:25;100620.81;;;4.92;100.00
32873;BME280;19224;52.462;16.898;2022-12-20T09:17:56;100621.23;;;4.95;100.00
32873;BME280;19224;52.462;16.898;2022-12-20T09:20:28;100621.16;;;4.98;100.00
32873;BME280;19224;52.462;16.898;2022-12-20T09:23:00;100617.08;;;5.02;100.00
32873;BME280;19224;52.462;16.898;2022-12-20T09:25:33;100614.27;;;5.10;100.00
32873;BME280;19224;52.462;16.898;2022-12-20T09:28:05;100609.77;;;5.13;100.00
32873;BME280;19224;52.462;16.898;2022-12-20T09:30:36;100610.24;;;5.13;100.00
32873;BME280;19224;52.462;16.898;2022-12-20T09:33:07;100609.77;;;5.13;100.00
32873;BME280;19224;52.462;16.898;2022-12-20T09:35:45;100603.17;;;5.09;100.00
32873;BME280;19224;52.462;16.898;2022-12-20T09:38:16;100611.18;;;5.09;100.00
32873;BME280;19224;52.462;16.898;2022-12-20T09:40:52;100612.02;;;5.12;100.00
32873;BME280;19224;52.462;16.898;2022-12-20T09:43:25;100627.37;;;5.25;100.00
32873;BME280;19224;52.462;16.898;2022-12-20T09:46:01;100617.03;;;5.30;100.00
32873;BME280;19224;52.462;16.898;2022-12-20T09:48:38;100599.95;;;5.39;100.00
32873;BME280;19224;52.462;16.898;2022-12-20T09:59:43;100595.45;;;5.86;100.00
32873;BME280;19224;52.462;16.898;2022-12-20T10:02:21;100599.06;;;5.84;100.00
32873;BME280;19224;52.462;16.898;2022-12-20T10:04:52;100600.96;;;5.79;100.00
32873;BME280;19224;52.462;16.898;2022-12-20T10:17:09;100610.88;;;5.94;100.00
32873;BME280;19224;52.462;16.898;2022-12-20T10:25:31;100597.30;;;6.24;100.00
32873;BME280;19224;52.462;16.898;2022-12-20T10:28:09;100599.05;;;6.25;100.00
32873;BME280;19224;52.462;16.898;2022-12-20T10:30:37;100598.12;;;6.26;100.00
32873;BME280;19224;52.462;16.898;2022-12-20T10:33:20;100596.58;;;6.16;100.00
32873;BME280;19224;52.462;16.898;2022-12-20T10:35:51;100611.89;;;6.08;100.00
32873;BME280;19224;52.462;16.898;2022-12-20T10:38:22;100602.61;;;6.05;100.00
32873;BME280;19224;52.462;16.898;2022-12-20T10:41:02;100609.30;;;6.05;100.00
32873;BME280;19224;52.462;16.898;2022-12-20T10:46:41;100606.31;;;5.98;100.00
32873;BME280;19224;52.462;16.898;2022-12-20T10:49:37;100603.61;;;6.01;100.00
32873;BME280;19224;52.462;16.898;2022-12-20T10:52:12;100596.13;;;5.96;100.00
32873;BME280;19224;52.462;16.898;2022-12-20T10:54:45;100596.20;;;5.93;100.00
32873;BME280;19224;52.462;16.898;2022-12-20T10:57:28;100589.09;;;5.92;100.00
32873;BME280;19224;52.462;16.898;2022-12-20T11:00:05;100583.23;;;5.95;100.00
32873;BME280;19224;52.462;16.898;2022-12-20T11:02:39;100573.00;;;5.93;100.00
32873;BME280;19224;52.462;16.898;2022-12-20T11:08:11;100567.94;;;6.02;100.00
32873;BME280;19224;52.462;16.898;2022-12-20T11:10:39;100568.86;;;6.01;100.00
32873;BME280;19224;52.462;16.898;2022-12-20T11:13:20;100571.53;;;6.01;100.00
32873;BME280;19224;52.462;16.898;2022-12-20T11:15:54;100586.65;;;6.02;100.00
32873;BME280;19224;52.462;16.898;2022-12-20T11:21:18;100569.20;;;6.05;100.00
32873;BME280;19224;52.462;16.898;2022-12-20T11:23:57;100565.61;;;6.06;100.00
32873;BME280;19224;52.462;16.898;2022-12-20T11:32:32;100549.39;;;6.13;100.00
32873;BME280;19224;52.462;16.898;2022-12-20T11:35:40;100545.77;;;6.16;100.00
32873;BME280;19224;52.462;16.898;2022-12-20T11:50:09;100520.77;;;6.18;100.00
32873;BME280;19224;52.462;16.898;2022-12-20T11:52:40;100517.83;;;6.10;100.00
32873;BME280;19224;52.462;16.898;2022-12-20T11:55:23;100521.37;;;6.12;100.00
32873;BME280;19224;52.462;16.898;2022-12-20T12:00:44;100512.02;;;6.12;100.00
32873;BME280;19224;52.462;16.898;2022-12-20T12:03:36;100508.86;;;6.12;100.00
32873;BME280;19224;52.462;16.898;2022-12-20T12:06:25;100507.92;;;6.15;100.00
32873;BME280;19224;52.462;16.898;2022-12-20T12:09:16;100511.02;;;6.16;100.00
32873;BME280;19224;52.462;16.898;2022-12-20T12:11:55;100505.75;;;6.13;100.00
32873;BME280;19224;52.462;16.898;2022-12-20T12:17:31;100499.52;;;6.11;100.00
32873;BME280;19224;52.462;16.898;2022-12-20T12:20:00;100508.05;;;6.09;100.00
32873;BME280;19224;52.462;16.898;2022-12-20T12:22:33;100510.72;;;6.09;100.00
32873;BME280;19224;52.462;16.898;2022-12-20T12:25:09;100509.38;;;6.09;100.00
32873;BME280;19224;52.462;16.898;2022-12-20T12:27:40;100509.75;;;6.13;100.00
32873;BME280;19224;52.462;16.898;2022-12-20T12:30:16;100498.48;;;6.18;100.00
32873;BME280;19224;52.462;16.898;2022-12-20T12:33:05;100502.97;;;6.17;100.00
32873;BME280;19224;52.462;16.898;2022-12-20T12:39:53;100498.64;;;6.12;100.00
32873;BME280;19224;52.462;16.898;2022-12-20T12:42:10;100494.18;;;6.11;100.00
32873;BME280;19224;52.462;16.898;2022-12-20T12:44:45;100477.70;;;6.11;100.00
32873;BME280;19224;52.462;16.898;2022-12-20T12:47:21;100470.48;;;6.15;100.00
32873;BME280;19224;52.462;16.898;2022-12-20T12:49:54;100470.06;;;6.14;100.00
32873;BME280;19224;52.462;16.898;2022-12-20T12:52:47;100473.05;;;6.19;100.00
32873;BME280;19224;52.462;16.898;2022-12-20T12:55:46;100464.53;;;6.21;100.00
32873;BME280;19224;52.462;16.898;2022-12-20T12:58:31;100447.65;;;6.19;100.00
32873;BME280;19224;52.462;16.898;2022-12-20T13:01:05;100460.94;;;6.22;100.00
32873;BME280;19224;52.462;16.898;2022-12-20T13:04:07;100452.91;;;6.22;100.00
32873;BME280;19224;52.462;16.898;2022-12-20T13:11:41;100466.59;;;6.10;100.00
32873;BME280;19224;52.462;16.898;2022-12-20T13:19:47;100457.86;;;6.02;100.00
32873;BME280;19224;52.462;16.898;2022-12-20T13:22:21;100453.91;;;6.01;100.00
32873;BME280;19224;52.462;16.898;2022-12-20T13:24:58;100456.00;;;6.06;100.00
32873;BME280;19224;52.462;16.898;2022-12-20T13:27:39;100460.45;;;6.05;100.00
32873;BME280;19224;52.462;16.898;2022-12-20T13:32:53;100456.41;;;6.07;100.00
32873;BME280;19224;52.462;16.898;2022-12-20T13:35:47;100448.00;;;6.04;100.00
32873;BME280;19224;52.462;16.898;2022-12-20T13:44:17;100442.03;;;5.93;100.00
32873;BME280;19224;52.462;16.898;2022-12-20T13:49:46;100434.02;;;5.93;100.00
32873;BME280;19224;52.462;16.898;2022-12-20T13:52:28;100444.34;;;5.91;100.00
32873;BME280;19224;52.462;16.898;2022-12-20T13:55:32;100446.60;;;5.90;100.00
32873;BME280;19224;52.462;16.898;2022-12-20T13:57:44;100435.49;;;5.89;100.00
32873;BME280;19224;52.462;16.898;2022-12-20T14:00:24;100423.91;;;5.88;100.00
32873;BME280;19224;52.462;16.898;2022-12-20T14:02:56;100425.66;;;5.89;100.00
32873;BME280;19224;52.462;16.898;2022-12-20T14:05:33;100418.59;;;5.87;100.00
32873;BME280;19224;52.462;16.898;2022-12-20T14:08:15;100416.78;;;5.89;100.00
32873;BME280;19224;52.462;16.898;2022-12-20T14:10:41;100418.48;;;5.91;100.00
32873;BME280;19224;52.462;16.898;2022-12-20T14:13:25;100417.20;;;5.90;100.00
32873;BME280;19224;52.462;16.898;2022-12-20T14:15:56;100419.87;;;5.90;100.00
32873;BME280;19224;52.462;16.898;2022-12-20T14:18:27;100424.24;;;5.92;100.00
32873;BME280;19224;52.462;16.898;2022-12-20T14:21:03;100423.47;;;5.89;100.00
32873;BME280;19224;52.462;16.898;2022-12-20T14:23:45;100417.75;;;5.85;100.00
32873;BME280;19224;52.462;16.898;2022-12-20T14:26:19;100436.85;;;5.87;100.00
32873;BME280;19224;52.462;16.898;2022-12-20T14:28:50;100423.16;;;5.83;100.00
32873;BME280;19224;52.462;16.898;2022-12-20T14:31:41;100433.78;;;5.85;100.00
32873;BME280;19224;52.462;16.898;2022-12-20T14:34:20;100421.82;;;5.83;100.00
32873;BME280;19224;52.462;16.898;2022-12-20T14:36:50;100402.31;;;5.77;100.00
32873;BME280;19224;52.462;16.898;2022-12-20T14:39:27;100399.64;;;5.77;100.00
32873;BME280;19224;52.462;16.898;2022-12-20T14:44:34;100393.55;;;5.72;100.00
32873;BME280;19224;52.462;16.898;2022-12-20T14:47:25;100389.20;;;5.68;100.00